createdAt,value
2022-08-10T00:00:55.406Z,1.60
2022-08-10T00:03:25.077Z,1.80
2022-08-10T00:05:55.045Z,1.48
2022-08-10T00:08:25.234Z,1.60
2022-08-10T00:10:56.634Z,1.70
2022-08-10T00:13:25.167Z,1.50
2022-08-10T00:15:55.184Z,1.45
2022-08-10T00:18:34.625Z,1.50
2022-08-10T00:21:07.381Z,1.50
2022-08-10T00:23:35.263Z,1.60
2022-08-10T00:26:02.762Z,1.38
2022-08-10T00:28:30.806Z,1.70
2022-08-10T00:30:58.409Z,2.10
2022-08-10T00:33:26.064Z,1.67
2022-08-10T00:35:53.662Z,1.65
2022-08-10T00:38:21.052Z,1.70
2022-08-10T00:40:48.469Z,1.70
2022-08-10T00:43:23.003Z,1.38
2022-08-10T00:45:59.907Z,1.45
2022-08-10T00:48:31.459Z,1.50
2022-08-10T00:51:01.967Z,3.45
2022-08-10T00:53:29.559Z,2.25
2022-08-10T00:57:14.094Z,1.60
2022-08-10T00:58:45.849Z,1.80
2022-08-10T01:02:08.882Z,1.80
2022-08-10T01:04:39.727Z,1.70
2022-08-10T01:06:58.843Z,3.38
2022-08-10T01:09:38.574Z,1.75
2022-08-10T01:12:39.223Z,1.98
2022-08-10T01:15:17.037Z,1.88
2022-08-10T01:17:50.319Z,1.65
2022-08-10T01:20:30.607Z,1.85
2022-08-10T01:23:16.269Z,1.63
2022-08-10T01:26:12.562Z,1.60
2022-08-10T01:28:54.473Z,1.75
2022-08-10T01:31:27.447Z,1.80
2022-08-10T01:33:59.020Z,1.92
2022-08-10T01:36:32.167Z,1.83
2022-08-10T01:39:01.117Z,2.03
2022-08-10T01:41:45.682Z,1.85
2022-08-10T01:44:15.724Z,1.60
2022-08-10T01:46:48.453Z,1.83
2022-08-10T01:49:21.042Z,1.70
2022-08-10T01:52:00.474Z,1.67
2022-08-10T01:54:29.804Z,1.98
2022-08-10T01:56:58.932Z,1.67
2022-08-10T01:59:34.839Z,1.77
2022-08-10T02:02:07.613Z,2.00
2022-08-10T02:04:36.934Z,2.35
2022-08-10T02:07:05.098Z,2.00
2022-08-10T02:09:33.944Z,1.95
2022-08-10T02:12:08.744Z,1.70
2022-08-10T02:14:39.927Z,2.10
2022-08-10T02:17:56.975Z,2.63
2022-08-10T02:19:59.424Z,2.05
2022-08-10T02:22:37.971Z,1.83
2022-08-10T02:25:40.125Z,2.10
2022-08-10T02:27:58.896Z,1.90
2022-08-10T02:30:29.435Z,1.92
2022-08-10T02:32:57.961Z,2.05
2022-08-10T02:35:27.248Z,2.20
2022-08-10T02:38:00.664Z,2.58
2022-08-10T02:45:13.075Z,2.00
2022-08-10T02:45:14.558Z,2.40
2022-08-10T02:46:11.582Z,2.20
2022-08-10T02:48:42.734Z,1.88
2022-08-10T02:51:15.068Z,2.08
2022-08-10T02:53:56.274Z,2.28
2022-08-10T02:56:40.285Z,2.30
2022-08-10T02:59:40.185Z,1.92
2022-08-10T03:02:09.264Z,2.08
2022-08-10T03:04:56.022Z,2.08
2022-08-10T03:07:43.416Z,2.10
2022-08-10T03:10:14.535Z,2.13
2022-08-10T03:12:43.279Z,2.20
2022-08-10T03:15:15.683Z,2.30
2022-08-10T03:18:15.647Z,2.40
2022-08-10T03:20:47.034Z,2.17
2022-08-10T03:23:40.321Z,2.47
2022-08-10T03:26:09.480Z,2.25
2022-08-10T03:28:40.007Z,2.60
2022-08-10T03:31:36.519Z,2.70
2022-08-10T03:34:32.571Z,2.47
2022-08-10T03:37:00.108Z,2.30
2022-08-10T03:39:27.818Z,2.80
2022-08-10T03:41:56.585Z,2.63
2022-08-10T03:44:26.341Z,2.40
2022-08-10T03:47:00.464Z,2.55
2022-08-10T03:49:29.858Z,2.70
2022-08-10T03:52:02.837Z,2.70
2022-08-10T03:55:02.282Z,2.80
2022-08-10T03:57:30.341Z,2.53
2022-08-10T03:59:58.152Z,2.55
2022-08-10T04:02:44.011Z,2.67
2022-08-10T04:05:41.184Z,3.13
2022-08-10T04:08:35.558Z,2.75
2022-08-10T04:11:05.126Z,2.80
2022-08-10T04:13:58.347Z,2.88
2022-08-10T04:16:27.881Z,3.15
2022-08-10T04:19:02.205Z,3.13
2022-08-10T04:22:11.813Z,3.13
2022-08-10T04:24:40.449Z,3.17
2022-08-10T04:27:08.151Z,3.17
2022-08-10T04:30:01.156Z,3.40
2022-08-10T04:32:31.691Z,3.00
2022-08-10T04:34:59.987Z,3.40
2022-08-10T04:37:28.094Z,2.95
2022-08-10T04:39:56.234Z,3.22
2022-08-10T04:42:24.146Z,2.90
2022-08-10T04:48:43.482Z,3.03
2022-08-10T04:51:17.902Z,3.38
2022-08-10T04:54:05.070Z,3.65
2022-08-10T04:56:38.851Z,3.60
2022-08-10T04:59:06.975Z,3.47
2022-08-10T05:02:22.338Z,3.70
2022-08-10T05:04:34.747Z,3.67
2022-08-10T05:07:28.345Z,3.85
2022-08-10T05:10:01.517Z,3.90
2022-08-10T05:12:35.781Z,3.90
2022-08-10T05:15:06.453Z,3.60
2022-08-10T05:17:34.824Z,3.50
2022-08-10T05:20:06.863Z,3.35
2022-08-10T05:22:39.837Z,3.30
2022-08-10T05:25:09.019Z,3.60
2022-08-10T05:27:36.580Z,4.38
2022-08-10T05:30:05.605Z,4.00
2022-08-10T05:32:57.298Z,3.35
2022-08-10T05:35:21.432Z,3.90
2022-08-10T05:38:12.225Z,3.80
2022-08-10T05:40:46.336Z,3.75
2022-08-10T05:43:17.002Z,4.10
2022-08-10T05:46:18.905Z,4.18
2022-08-10T05:48:41.658Z,4.32
2022-08-10T05:51:20.539Z,4.13
2022-08-10T05:54:01.430Z,4.45
2022-08-10T05:56:55.378Z,4.55
2022-08-10T06:00:33.271Z,4.10
2022-08-10T06:02:41.506Z,4.75
2022-08-10T06:05:04.959Z,4.95
2022-08-10T06:07:33.389Z,4.68
2022-08-10T06:10:01.906Z,4.72
2022-08-10T06:12:31.367Z,4.90
2022-08-10T06:15:05.551Z,5.47
2022-08-10T06:17:38.116Z,5.10
2022-08-10T06:20:06.103Z,5.15
2022-08-10T06:22:33.669Z,5.55
2022-08-10T06:27:52.877Z,4.90
2022-08-10T06:30:21.273Z,4.60
2022-08-10T06:32:50.378Z,5.13
2022-08-10T06:35:18.284Z,5.10
2022-08-10T06:37:51.601Z,4.78
2022-08-10T06:40:20.079Z,4.80
2022-08-10T06:42:49.487Z,4.50
2022-08-10T06:45:19.800Z,4.18
2022-08-10T06:47:49.970Z,5.20
2022-08-10T06:50:34.796Z,4.13
2022-08-10T06:53:12.316Z,4.60
2022-08-10T06:55:55.148Z,5.00
2022-08-10T06:58:29.858Z,4.95
2022-08-10T07:00:58.198Z,4.35
2022-08-10T07:03:27.501Z,4.72
2022-08-10T07:05:55.625Z,4.70
2022-08-10T07:08:23.796Z,4.32
2022-08-10T07:10:52.190Z,4.47
2022-08-10T07:14:13.990Z,4.65
2022-08-10T07:16:11.758Z,4.60
2022-08-10T07:18:39.758Z,4.22
2022-08-10T07:21:08.071Z,4.55
2022-08-10T07:23:58.978Z,4.90
2022-08-10T07:26:24.178Z,4.00
2022-08-10T07:28:52.036Z,4.28
2022-08-10T07:31:29.748Z,3.90
2022-08-10T07:34:12.174Z,3.72
2022-08-10T07:36:52.184Z,2.70
2022-08-10T07:40:02.909Z,2.97
2022-08-10T07:42:09.288Z,3.78
2022-08-10T07:44:37.916Z,3.40
2022-08-10T07:47:06.844Z,3.17
2022-08-10T07:49:39.200Z,3.60
2022-08-10T07:52:07.689Z,3.53
2022-08-10T07:54:40.625Z,2.92
2022-08-10T07:57:10.439Z,2.58
2022-08-10T07:59:38.954Z,3.42
2022-08-10T08:02:08.622Z,2.65
2022-08-10T08:04:36.155Z,2.28
2022-08-10T08:07:04.616Z,3.38
2022-08-10T08:09:32.919Z,3.15
2022-08-10T08:12:00.810Z,2.83
2022-08-10T08:14:28.383Z,2.88
2022-08-10T08:16:57.074Z,2.67
2022-08-10T08:19:28.421Z,2.70
2022-08-10T08:24:06.415Z,3.10
2022-08-10T08:25:03.590Z,2.65
2022-08-10T08:27:32.430Z,3.03
2022-08-10T08:30:00.705Z,3.03
2022-08-10T08:32:28.917Z,2.40
2022-08-10T08:35:06.945Z,2.50
2022-08-10T08:38:31.604Z,2.97
2022-08-10T08:40:27.313Z,2.55
2022-08-10T08:43:13.132Z,2.55
2022-08-10T08:46:00.892Z,2.75
2022-08-10T08:48:29.570Z,2.47
2022-08-10T08:51:01.610Z,2.72
2022-08-10T08:54:01.235Z,3.05
2022-08-10T08:56:31.233Z,2.40
2022-08-10T08:59:24.520Z,2.53
2022-08-10T09:02:10.677Z,2.42
2022-08-10T09:04:57.400Z,2.65
2022-08-10T09:08:00.510Z,2.55
2022-08-10T09:10:37.184Z,2.95
2022-08-10T09:13:15.029Z,2.30
2022-08-10T09:15:45.407Z,2.67
2022-08-10T09:18:21.531Z,2.83
2022-08-10T09:21:10.363Z,2.47
2022-08-10T09:24:05.081Z,2.83
2022-08-10T09:26:34.710Z,2.85
2022-08-10T09:29:11.813Z,2.63
2022-08-10T09:31:55.895Z,2.90
2022-08-10T09:36:20.092Z,2.67
2022-08-10T09:38:01.949Z,2.40
2022-08-10T09:40:59.414Z,2.42
2022-08-10T09:43:26.729Z,2.38
2022-08-10T09:46:03.691Z,2.70
2022-08-10T09:48:51.548Z,2.95
2022-08-10T09:51:46.354Z,2.13
2022-08-10T09:54:14.622Z,2.40
2022-08-10T09:56:48.894Z,2.17
2022-08-10T09:59:47.293Z,2.35
2022-08-10T10:02:27.695Z,2.20
2022-08-10T10:05:07.572Z,2.38
2022-08-10T10:07:35.557Z,1.98
2022-08-10T10:10:09.449Z,2.38
2022-08-10T10:12:43.288Z,2.30
2022-08-10T10:15:25.041Z,2.20
2022-08-10T10:18:08.896Z,2.45
2022-08-10T10:20:41.521Z,2.67
2022-08-10T10:23:29.903Z,2.45
2022-08-10T10:26:06.598Z,2.53
2022-08-10T10:29:19.789Z,2.25
2022-08-10T10:31:34.697Z,2.75
2022-08-10T10:34:14.369Z,2.17
2022-08-10T10:36:43.248Z,2.38
2022-08-10T10:39:13.291Z,2.45
2022-08-10T10:42:03.092Z,1.95
2022-08-10T10:44:44.029Z,2.33
2022-08-10T10:47:17.767Z,2.50
2022-08-10T10:49:45.127Z,2.50
2022-08-10T10:52:18.779Z,2.30
2022-08-10T10:54:57.316Z,2.00
2022-08-10T10:57:59.245Z,2.10
2022-08-10T11:00:30.736Z,2.63
2022-08-10T11:03:12.205Z,2.50
2022-08-10T11:05:51.146Z,2.30
2022-08-10T11:08:31.413Z,2.75
2022-08-10T11:11:20.488Z,2.15
2022-08-10T11:14:26.144Z,2.80
2022-08-10T11:17:13.824Z,2.47
2022-08-10T11:20:02.243Z,2.30
2022-08-10T11:22:36.435Z,2.40
2022-08-10T11:25:27.966Z,3.40
2022-08-10T11:28:11.749Z,2.25
2022-08-10T11:30:48.835Z,2.78
2022-08-10T11:33:32.782Z,2.80
2022-08-10T11:36:07.055Z,2.50
2022-08-10T11:39:04.039Z,2.63
2022-08-10T11:42:09.879Z,2.28
2022-08-10T11:44:19.247Z,2.40
2022-08-10T11:47:04.954Z,2.17
2022-08-10T11:49:41.380Z,2.28
2022-08-10T11:52:17.579Z,2.88
2022-08-10T11:54:47.906Z,2.70
2022-08-10T11:57:18.547Z,2.35
2022-08-10T11:59:58.206Z,2.42
2022-08-10T12:02:36.811Z,2.50
2022-08-10T12:05:09.486Z,2.45
2022-08-10T12:10:02.097Z,2.65
2022-08-10T12:10:28.540Z,2.50
2022-08-10T12:13:17.737Z,2.28
2022-08-10T12:16:05.729Z,1.95
2022-08-10T12:18:52.318Z,2.20
2022-08-10T12:21:22.416Z,2.72
2022-08-10T12:24:02.897Z,2.00
2022-08-10T12:26:39.762Z,2.55
2022-08-10T12:29:10.383Z,2.47
2022-08-10T12:31:44.076Z,2.30
2022-08-10T12:34:11.673Z,2.25
2022-08-10T12:36:41.749Z,2.42
2022-08-10T12:39:15.811Z,2.15
2022-08-10T12:41:45.218Z,2.50
2022-08-10T12:44:15.676Z,2.55
2022-08-10T12:46:51.213Z,2.58
2022-08-10T12:49:28.008Z,2.20
2022-08-10T12:52:14.380Z,2.58
2022-08-10T12:54:42.639Z,2.35
2022-08-10T12:57:12.450Z,2.70
2022-08-10T12:59:44.476Z,2.17
2022-08-10T13:02:30.524Z,2.30
2022-08-10T13:04:59.060Z,2.30
2022-08-10T13:08:06.482Z,1.95
2022-08-10T13:10:16.794Z,2.58
2022-08-10T13:12:45.702Z,1.98
2022-08-10T13:15:43.255Z,2.53
2022-08-10T13:18:18.090Z,2.13
2022-08-10T13:20:50.693Z,2.10
2022-08-10T13:23:21.523Z,2.08
2022-08-10T13:25:51.160Z,2.70
2022-08-10T13:28:36.156Z,2.17
2022-08-10T13:31:11.652Z,2.17
2022-08-10T13:34:40.881Z,2.00
2022-08-10T13:36:41.729Z,1.70
2022-08-10T13:39:09.811Z,2.22
2022-08-10T13:41:45.971Z,2.40
2022-08-10T13:44:15.595Z,2.40
2022-08-10T13:46:49.307Z,2.20
2022-08-10T13:49:18.045Z,2.38
2022-08-10T13:51:56.836Z,2.30
2022-08-10T13:54:30.555Z,2.28
2022-08-10T13:56:58.756Z,2.10
2022-08-10T14:00:34.081Z,2.20
2022-08-10T14:02:22.548Z,2.17
2022-08-10T14:04:51.177Z,2.05
2022-08-10T14:07:19.190Z,2.13
2022-08-10T14:09:47.789Z,2.60
2022-08-10T14:12:16.044Z,2.10
2022-08-10T14:14:43.836Z,2.15
2022-08-10T14:17:35.768Z,2.42
2022-08-10T14:20:07.179Z,2.42
2022-08-10T14:22:39.901Z,2.20
2022-08-10T14:25:10.796Z,2.20
2022-08-10T14:28:01.632Z,2.17
2022-08-10T14:30:30.989Z,2.15
2022-08-10T14:33:04.397Z,2.53
2022-08-10T14:36:19.218Z,2.42
2022-08-10T14:38:24.075Z,2.30
2022-08-10T14:40:53.074Z,2.10
2022-08-10T14:43:33.650Z,2.17
2022-08-10T14:46:11.470Z,2.20
2022-08-10T14:48:44.356Z,2.60
2022-08-10T14:51:15.759Z,2.72
2022-08-10T14:53:46.435Z,2.80
2022-08-10T14:56:17.700Z,2.53
2022-08-10T14:59:05.306Z,2.05
2022-08-10T15:02:37.214Z,2.58
2022-08-10T15:04:30.076Z,2.20
2022-08-10T15:07:11.950Z,2.28
2022-08-10T15:10:00.634Z,2.38
2022-08-10T15:12:36.469Z,2.47
2022-08-10T15:15:05.064Z,2.28
2022-08-10T15:17:35.272Z,2.42
2022-08-10T15:20:16.122Z,2.00
2022-08-10T15:22:50.627Z,2.05
2022-08-10T15:25:24.657Z,2.38
2022-08-10T15:28:05.310Z,2.30
2022-08-10T15:30:39.641Z,2.30
2022-08-10T15:33:57.652Z,2.40
2022-08-10T15:37:36.784Z,2.53
2022-08-10T15:40:20.664Z,2.47
2022-08-10T15:42:34.987Z,2.80
2022-08-10T15:45:03.166Z,2.90
2022-08-10T15:47:45.261Z,2.72
2022-08-10T15:50:40.279Z,2.80
2022-08-10T15:53:16.774Z,3.08
2022-08-10T15:55:53.562Z,2.90
2022-08-10T15:58:53.823Z,3.10
2022-08-10T16:02:14.205Z,2.72
2022-08-10T16:04:31.683Z,2.83
2022-08-10T16:07:03.154Z,2.65
2022-08-10T16:10:24.956Z,2.10
2022-08-10T16:12:30.084Z,2.42
2022-08-10T16:15:00.455Z,2.50
2022-08-10T16:17:28.799Z,2.40
2022-08-10T16:19:57.917Z,2.10
2022-08-10T16:22:36.085Z,2.38
2022-08-10T16:25:12.373Z,2.50
2022-08-10T16:27:40.172Z,2.67
2022-08-10T16:30:07.843Z,2.10
2022-08-10T16:32:36.690Z,2.40
2022-08-10T16:35:09.254Z,2.55
2022-08-10T16:37:57.603Z,2.42
2022-08-10T16:40:27.846Z,2.58
2022-08-10T16:42:56.570Z,3.03
2022-08-10T16:45:32.315Z,2.10
2022-08-10T16:48:00.170Z,2.60
2022-08-10T16:51:03.757Z,2.22
2022-08-10T16:53:32.940Z,2.60
2022-08-10T16:56:02.432Z,2.30
2022-08-10T16:58:33.109Z,2.40
2022-08-10T17:01:11.051Z,2.42
2022-08-10T17:04:11.267Z,2.70
2022-08-10T17:06:41.875Z,2.30
2022-08-10T17:09:15.393Z,3.00
2022-08-10T17:11:45.921Z,2.63
2022-08-10T17:14:13.720Z,2.60
2022-08-10T17:16:44.711Z,2.90
2022-08-10T17:19:17.880Z,2.60
2022-08-10T17:22:05.501Z,2.70
2022-08-10T17:24:35.177Z,2.50
2022-08-10T17:28:05.880Z,2.50
2022-08-10T17:30:04.773Z,2.30
2022-08-10T17:32:46.356Z,2.92
2022-08-10T17:35:16.128Z,2.80
2022-08-10T17:37:57.477Z,2.72
2022-08-10T17:40:27.931Z,2.50
2022-08-10T17:42:56.035Z,2.90
2022-08-10T17:45:48.068Z,3.10
2022-08-10T17:48:13.255Z,3.00
2022-08-10T17:50:42.650Z,3.20
2022-08-10T17:53:15.160Z,3.00
2022-08-10T17:55:43.775Z,2.70
2022-08-10T17:58:16.001Z,2.60
2022-08-10T18:00:44.533Z,2.70
2022-08-10T18:03:15.781Z,2.65
2022-08-10T18:05:58.540Z,3.08
2022-08-10T18:08:28.079Z,2.88
2022-08-10T18:10:57.996Z,2.72
2022-08-10T18:13:26.784Z,2.60
2022-08-10T18:16:16.073Z,2.65
2022-08-10T18:18:43.672Z,3.22
2022-08-10T18:21:19.288Z,2.47
2022-08-10T18:23:52.491Z,2.33
2022-08-10T18:26:21.739Z,2.88
2022-08-10T18:28:52.295Z,2.50
2022-08-10T18:31:21.574Z,2.72
2022-08-10T18:33:51.278Z,2.67
2022-08-10T18:36:20.812Z,2.88
2022-08-10T18:38:52.748Z,3.17
2022-08-10T18:41:38.919Z,2.95
2022-08-10T18:44:32.918Z,2.78
2022-08-10T18:47:16.036Z,2.67
2022-08-10T18:50:05.775Z,2.70
2022-08-10T18:52:37.530Z,2.78
2022-08-10T18:55:23.009Z,2.50
2022-08-10T18:58:04.053Z,2.72
2022-08-10T19:00:37.423Z,2.60
2022-08-10T19:03:11.692Z,2.60
2022-08-10T19:05:48.284Z,2.30
2022-08-10T19:08:35.407Z,2.75
2022-08-10T19:11:04.265Z,2.63
2022-08-10T19:13:40.997Z,2.50
2022-08-10T19:16:35.811Z,2.40
2022-08-10T19:19:26.360Z,2.50
2022-08-10T19:22:09.625Z,2.58
2022-08-10T19:28:16.878Z,2.33
2022-08-10T19:30:52.549Z,2.70
2022-08-10T19:33:26.347Z,2.50
2022-08-10T19:36:09.070Z,2.45
2022-08-10T19:38:50.528Z,2.58
2022-08-10T19:41:19.714Z,2.30
2022-08-10T19:44:21.589Z,3.00
2022-08-10T19:47:03.592Z,2.35
2022-08-10T19:49:43.516Z,2.33
2022-08-10T19:52:22.586Z,2.85
2022-08-10T19:54:50.951Z,2.10
2022-08-10T19:57:39.633Z,2.40
2022-08-10T20:00:19.153Z,2.45
2022-08-10T20:02:53.785Z,2.50
2022-08-10T20:05:34.806Z,2.50
2022-08-10T20:08:20.246Z,2.33
2022-08-10T20:10:50.610Z,2.42
2022-08-10T20:13:38.267Z,2.40
2022-08-10T20:16:13.327Z,2.30
2022-08-10T20:19:02.626Z,2.50
2022-08-10T20:21:32.816Z,2.53
2022-08-10T20:24:07.698Z,2.30
2022-08-10T20:26:42.896Z,2.53
2022-08-10T20:29:16.175Z,2.40
2022-08-10T20:31:52.786Z,2.65
2022-08-10T20:34:26.623Z,2.30
2022-08-10T20:36:59.622Z,2.60
2022-08-10T20:39:30.195Z,2.63
2022-08-10T20:42:03.606Z,2.60
2022-08-10T20:44:44.415Z,2.67
2022-08-10T20:47:16.039Z,2.30
2022-08-10T20:50:07.041Z,2.50
2022-08-10T20:52:40.317Z,2.15
2022-08-10T20:55:10.049Z,2.15
2022-08-10T20:57:54.275Z,2.50
2022-08-10T21:00:44.737Z,2.35
2022-08-10T21:03:40.659Z,2.50
2022-08-10T21:06:49.669Z,2.22
2022-08-10T21:09:56.334Z,2.70
2022-08-10T21:12:53.521Z,2.55
2022-08-10T21:15:24.230Z,2.55
2022-08-10T21:18:12.914Z,2.63
2022-08-10T21:20:55.697Z,2.15
2022-08-10T21:23:30.279Z,2.33
2022-08-10T21:26:08.054Z,2.50
2022-08-10T21:29:21.382Z,2.30
2022-08-10T21:31:56.269Z,1.90
2022-08-10T21:34:36.221Z,2.72
2022-08-10T21:37:07.934Z,2.42
2022-08-10T21:39:48.190Z,2.05
2022-08-10T21:42:34.178Z,2.45
2022-08-10T21:45:58.411Z,2.15
2022-08-10T21:48:44.202Z,2.30
2022-08-10T21:52:01.847Z,2.03
2022-08-10T21:54:54.202Z,2.35
2022-08-10T21:58:02.949Z,2.08
2022-08-10T22:03:53.944Z,2.20
2022-08-10T22:06:52.605Z,2.47
2022-08-10T22:09:45.160Z,2.45
2022-08-10T22:12:35.291Z,2.28
2022-08-10T22:16:03.771Z,2.17
2022-08-10T22:18:40.011Z,2.40
2022-08-10T22:21:48.043Z,2.30
2022-08-10T22:24:46.766Z,2.40
2022-08-10T22:27:47.639Z,2.05
2022-08-10T22:31:22.758Z,2.17
2022-08-10T22:34:10.742Z,2.50
2022-08-10T22:37:15.757Z,2.10
2022-08-10T22:40:13.159Z,2.17
2022-08-10T22:43:11.084Z,2.17
2022-08-10T22:46:04.028Z,2.28
2022-08-10T22:48:51.042Z,2.20
2022-08-10T22:51:22.564Z,2.08
2022-08-10T22:54:30.524Z,2.15
2022-08-10T22:57:18.970Z,2.45
2022-08-10T22:59:47.330Z,2.08
2022-08-10T23:02:27.418Z,1.90
2022-08-10T23:05:15.412Z,1.90
2022-08-10T23:07:48.548Z,2.20
2022-08-10T23:10:19.138Z,2.15
2022-08-10T23:12:52.213Z,2.08
2022-08-10T23:15:45.499Z,2.10
2022-08-10T23:18:38.435Z,2.30
2022-08-10T23:21:08.050Z,2.17
2022-08-10T23:23:39.754Z,2.22
2022-08-10T23:26:09.050Z,2.00
2022-08-10T23:28:59.224Z,2.10
2022-08-10T23:31:51.897Z,2.35
2022-08-10T23:34:22.203Z,1.90
2022-08-10T23:36:51.023Z,2.15
2022-08-10T23:39:24.102Z,2.00
2022-08-10T23:42:04.692Z,2.10
2022-08-10T23:44:38.652Z,1.98
2022-08-10T23:47:06.540Z,2.00
2022-08-10T23:49:35.721Z,1.92
2022-08-10T23:52:10.177Z,2.13
2022-08-10T23:54:42.637Z,2.25
2022-08-10T23:57:15.072Z,2.30
2022-08-10T23:59:43.638Z,2.45
